sensor_id;sensor_type;location;lat;lon;timestamp;pressure;altitude;pressure_sealevel;temperature;humidity
73974;BME280;62336;-26.094;27.994;2022-12-18T00:01:38;84134.72;;;30.33;26.63
73974;BME280;62336;-26.094;27.994;2022-12-18T00:04:05;84128.67;;;30.34;26.18
73974;BME280;62336;-26.094;27.994;2022-12-18T00:06:30;84127.28;;;30.48;26.59
73974;BME280;62336;-26.094;27.994;2022-12-18T00:08:56;84125.97;;;30.05;26.75
73974;BME280;62336;-26.094;27.994;2022-12-18T00:11:23;84123.66;;;29.95;26.65
73974;BME280;62336;-26.094;27.994;2022-12-18T00:13:47;84119.55;;;29.80;26.92
73974;BME280;62336;-26.094;27.994;2022-12-18T02:27:02;84195.65;;;11.52;100.00
73974;BME280;62336;-26.094;27.994;2022-12-18T02:29:30;84193.35;;;15.74;76.64
73974;BME280;62336;-26.094;27.994;2022-12-18T02:32:04;84188.96;;;18.54;60.74
73974;BME280;62336;-26.094;27.994;2022-12-18T02:34:30;84186.75;;;20.79;51.20
73974;BME280;62336;-26.094;27.994;2022-12-18T02:36:44;84187.03;;;22.60;45.83
73974;BME280;62336;-26.094;27.994;2022-12-18T02:39:11;84187.82;;;24.05;41.19
73974;BME280;62336;-26.094;27.994;2022-12-18T02:41:34;84186.14;;;24.87;39.57
73974;BME280;62336;-26.094;27.994;2022-12-18T02:44:06;84192.16;;;25.17;36.89
73974;BME280;62336;-26.094;27.994;2022-12-18T02:46:31;84199.93;;;26.09;35.68
73974;BME280;62336;-26.094;27.994;2022-12-18T02:48:53;84207.32;;;26.37;34.21
73974;BME280;62336;-26.094;27.994;2022-12-18T02:51:23;84210.94;;;26.58;33.87
73974;BME280;62336;-26.094;27.994;2022-12-18T02:53:47;84213.09;;;26.87;33.09
73974;BME280;62336;-26.094;27.994;2022-12-18T02:56:13;84218.80;;;27.31;32.38
73974;BME280;62336;-26.094;27.994;2022-12-18T02:58:41;84221.90;;;27.12;32.35
73974;BME280;62336;-26.094;27.994;2022-12-18T03:01:06;84229.89;;;28.37;30.67
73974;BME280;62336;-26.094;27.994;2022-12-18T03:03:30;84232.79;;;27.95;31.00
73974;BME280;62336;-26.094;27.994;2022-12-18T03:05:54;84237.18;;;27.63;30.96
73974;BME280;62336;-26.094;27.994;2022-12-18T03:08:20;84246.99;;;27.49;30.85
73974;BME280;62336;-26.094;27.994;2022-12-18T03:10:48;84247.84;;;27.87;30.35
73974;BME280;62336;-26.094;27.994;2022-12-18T03:13:12;84245.88;;;27.92;30.61
73974;BME280;62336;-26.094;27.994;2022-12-18T03:15:37;84251.36;;;28.04;30.64
73974;BME280;62336;-26.094;27.994;2022-12-18T03:18:04;84252.07;;;27.93;30.54
73974;BME280;62336;-26.094;27.994;2022-12-18T03:20:26;84254.46;;;27.43;30.88
73974;BME280;62336;-26.094;27.994;2022-12-18T03:22:55;84257.13;;;27.77;30.70
73974;BME280;62336;-26.094;27.994;2022-12-18T03:25:18;84256.02;;;28.14;30.29
73974;BME280;62336;-26.094;27.994;2022-12-18T03:27:47;84255.72;;;28.34;30.09
73974;BME280;62336;-26.094;27.994;2022-12-18T03:30:11;84255.17;;;27.98;30.29
73974;BME280;62336;-26.094;27.994;2022-12-18T03:32:40;84256.11;;;28.30;30.30
73974;BME280;62336;-26.094;27.994;2022-12-18T03:35:04;84261.84;;;27.88;30.58
73974;BME280;62336;-26.094;27.994;2022-12-18T03:37:26;84263.60;;;28.06;30.12
73974;BME280;62336;-26.094;27.994;2022-12-18T03:39:52;84263.34;;;27.86;29.97
73974;BME280;62336;-26.094;27.994;2022-12-18T03:42:24;84267.09;;;27.58;30.37
73974;BME280;62336;-26.094;27.994;2022-12-18T03:44:49;84267.35;;;27.42;30.65
73974;BME280;62336;-26.094;27.994;2022-12-18T03:47:13;84267.57;;;27.61;30.41
73974;BME280;62336;-26.094;27.994;2022-12-18T03:49:38;84269.13;;;27.98;30.09
73974;BME280;62336;-26.094;27.994;2022-12-18T03:52:03;84266.32;;;28.00;30.09
73974;BME280;62336;-26.094;27.994;2022-12-18T03:54:26;84265.78;;;27.74;30.30
73974;BME280;62336;-26.094;27.994;2022-12-18T03:56:57;84265.65;;;27.64;30.46
73974;BME280;62336;-26.094;27.994;2022-12-18T03:59:18;84264.47;;;27.74;30.43
73974;BME280;62336;-26.094;27.994;2022-12-18T04:01:46;84259.95;;;27.70;30.37
73974;BME280;62336;-26.094;27.994;2022-12-18T04:04:10;84257.44;;;28.27;30.10
73974;BME280;62336;-26.094;27.994;2022-12-18T04:06:35;84255.49;;;28.05;30.04
73974;BME280;62336;-26.094;27.994;2022-12-18T04:08:59;84256.40;;;27.89;30.35
73974;BME280;62336;-26.094;27.994;2022-12-18T04:11:25;84255.23;;;28.88;29.40
73974;BME280;62336;-26.094;27.994;2022-12-18T04:13:50;84258.82;;;28.69;29.46
73974;BME280;62336;-26.094;27.994;2022-12-18T04:16:15;84262.95;;;28.19;29.86
73974;BME280;62336;-26.094;27.994;2022-12-18T04:18:40;84263.24;;;28.31;29.93
73974;BME280;62336;-26.094;27.994;2022-12-18T04:21:05;84267.06;;;28.28;29.88
73974;BME280;62336;-26.094;27.994;2022-12-18T04:23:31;84270.75;;;28.28;29.87
73974;BME280;62336;-26.094;27.994;2022-12-18T04:25:57;84271.19;;;28.59;29.29
73974;BME280;62336;-26.094;27.994;2022-12-18T04:28:22;84269.15;;;28.37;29.82
73974;BME280;62336;-26.094;27.994;2022-12-18T04:30:47;84266.98;;;28.48;29.54
73974;BME280;62336;-26.094;27.994;2022-12-18T04:33:13;84265.96;;;28.56;29.52
73974;BME280;62336;-26.094;27.994;2022-12-18T04:35:39;84265.47;;;28.80;28.86
73974;BME280;62336;-26.094;27.994;2022-12-18T04:38:04;84268.11;;;29.14;28.60
73974;BME280;62336;-26.094;27.994;2022-12-18T04:40:29;84269.75;;;29.09;28.65
73974;BME280;62336;-26.094;27.994;2022-12-18T04:42:55;84267.70;;;29.40;28.57
73974;BME280;62336;-26.094;27.994;2022-12-18T04:45:20;84269.15;;;29.02;28.64
73974;BME280;62336;-26.094;27.994;2022-12-18T04:47:45;84268.56;;;29.01;28.56
73974;BME280;62336;-26.094;27.994;2022-12-18T04:50:10;84270.83;;;29.42;28.55
73974;BME280;62336;-26.094;27.994;2022-12-18T04:52:35;84273.84;;;29.55;27.63
73974;BME280;62336;-26.094;27.994;2022-12-18T04:55:01;84274.51;;;29.10;27.96
73974;BME280;62336;-26.094;27.994;2022-12-18T04:57:27;84273.44;;;28.88;28.48
73974;BME280;62336;-26.094;27.994;2022-12-18T04:59:52;84273.46;;;28.80;28.35
73974;BME280;62336;-26.094;27.994;2022-12-18T05:02:18;84272.38;;;28.91;28.21
73974;BME280;62336;-26.094;27.994;2022-12-18T05:04:43;84274.22;;;29.38;28.75
73974;BME280;62336;-26.094;27.994;2022-12-18T05:07:08;84273.15;;;29.48;28.25
73974;BME280;62336;-26.094;27.994;2022-12-18T05:09:33;84271.10;;;28.97;27.94
73974;BME280;62336;-26.094;27.994;2022-12-18T05:11:59;84269.05;;;28.90;28.07
73974;BME280;62336;-26.094;27.994;2022-12-18T05:14:25;84271.92;;;29.24;27.31
73974;BME280;62336;-26.094;27.994;2022-12-18T05:16:50;84271.17;;;29.22;27.08
73974;BME280;62336;-26.094;27.994;2022-12-18T05:19:16;84274.04;;;29.08;27.17
73974;BME280;62336;-26.094;27.994;2022-12-18T05:21:42;84276.87;;;29.62;26.70
73974;BME280;62336;-26.094;27.994;2022-12-18T05:24:08;84278.68;;;30.21;26.48
73974;BME280;62336;-26.094;27.994;2022-12-18T05:26:32;84278.27;;;29.50;27.00
73974;BME280;62336;-26.094;27.994;2022-12-18T05:28:59;84278.45;;;30.10;26.67
73974;BME280;62336;-26.094;27.994;2022-12-18T05:31:25;84278.54;;;30.68;26.24
73974;BME280;62336;-26.094;27.994;2022-12-18T05:33:50;84278.42;;;30.04;26.60
73974;BME280;62336;-26.094;27.994;2022-12-18T05:36:16;84281.55;;;29.78;27.31
73974;BME280;62336;-26.094;27.994;2022-12-18T05:38:41;84278.80;;;30.51;26.74
73974;BME280;62336;-26.094;27.994;2022-12-18T05:41:07;84280.12;;;30.68;26.77
73974;BME280;62336;-26.094;27.994;2022-12-18T05:43:35;84281.01;;;30.75;26.31
73974;BME280;62336;-26.094;27.994;2022-12-18T05:46:01;84284.57;;;30.37;26.78
73974;BME280;62336;-26.094;27.994;2022-12-18T05:48:24;84286.14;;;30.59;26.27
73974;BME280;62336;-26.094;27.994;2022-12-18T05:50:50;84283.55;;;31.05;25.70
73974;BME280;62336;-26.094;27.994;2022-12-18T05:53:16;84286.23;;;31.36;25.35
73974;BME280;62336;-26.094;27.994;2022-12-18T05:55:40;84285.47;;;30.83;25.64
73974;BME280;62336;-26.094;27.994;2022-12-18T05:58:06;84284.68;;;30.83;25.36
73974;BME280;62336;-26.094;27.994;2022-12-18T06:00:31;84285.40;;;31.36;24.85
73974;BME280;62336;-26.094;27.994;2022-12-18T06:02:55;84283.08;;;31.08;24.90
73974;BME280;62336;-26.094;27.994;2022-12-18T06:05:22;84285.24;;;32.04;24.31
73974;BME280;62336;-26.094;27.994;2022-12-18T06:07:47;84287.27;;;31.81;24.71
73974;BME280;62336;-26.094;27.994;2022-12-18T06:10:13;84286.96;;;31.09;24.94
73974;BME280;62336;-26.094;27.994;2022-12-18T06:12:38;84286.96;;;31.76;24.30
73974;BME280;62336;-26.094;27.994;2022-12-18T06:15:04;84288.05;;;32.26;24.34
73974;BME280;62336;-26.094;27.994;2022-12-18T06:17:30;84290.56;;;32.07;25.11
73974;BME280;62336;-26.094;27.994;2022-12-18T06:19:55;84291.95;;;32.28;23.83
73974;BME280;62336;-26.094;27.994;2022-12-18T06:22:21;84288.74;;;32.38;24.22
73974;BME280;62336;-26.094;27.994;2022-12-18T06:24:47;84284.57;;;32.24;23.85
73974;BME280;62336;-26.094;27.994;2022-12-18T06:27:12;84285.93;;;32.14;23.43
73974;BME280;62336;-26.094;27.994;2022-12-18T06:29:37;84291.17;;;32.58;23.89
73974;BME280;62336;-26.094;27.994;2022-12-18T06:32:03;84293.29;;;32.75;22.95
73974;BME280;62336;-26.094;27.994;2022-12-18T06:34:29;84293.27;;;32.42;23.07
73974;BME280;62336;-26.094;27.994;2022-12-18T06:36:54;84291.54;;;32.80;23.06
73974;BME280;62336;-26.094;27.994;2022-12-18T06:39:20;84289.44;;;32.62;22.52
73974;BME280;62336;-26.094;27.994;2022-12-18T06:41:46;84289.16;;;32.86;22.96
73974;BME280;62336;-26.094;27.994;2022-12-18T06:44:11;84293.58;;;32.70;23.43
73974;BME280;62336;-26.094;27.994;2022-12-18T06:46:37;84293.69;;;33.19;22.79
73974;BME280;62336;-26.094;27.994;2022-12-18T06:49:03;84289.06;;;33.10;22.72
73974;BME280;62336;-26.094;27.994;2022-12-18T06:51:29;84291.58;;;33.41;21.91
73974;BME280;62336;-26.094;27.994;2022-12-18T06:53:55;84288.93;;;33.26;21.92
73974;BME280;62336;-26.094;27.994;2022-12-18T06:56:21;84289.02;;;33.24;21.84
73974;BME280;62336;-26.094;27.994;2022-12-18T06:58:46;84288.32;;;33.63;21.29
73974;BME280;62336;-26.094;27.994;2022-12-18T07:01:13;84287.58;;;34.03;21.09
73974;BME280;62336;-26.094;27.994;2022-12-18T07:03:38;84288.72;;;33.79;19.85
73974;BME280;62336;-26.094;27.994;2022-12-18T07:06:04;84289.47;;;33.51;20.10
73974;BME280;62336;-26.094;27.994;2022-12-18T07:08:29;84290.57;;;34.09;19.95
73974;BME280;62336;-26.094;27.994;2022-12-18T07:10:55;84287.91;;;33.62;19.86
73974;BME280;62336;-26.094;27.994;2022-12-18T07:13:21;84289.39;;;33.96;20.29
73974;BME280;62336;-26.094;27.994;2022-12-18T07:15:46;84292.70;;;33.67;21.32
73974;BME280;62336;-26.094;27.994;2022-12-18T07:18:12;84289.06;;;33.54;21.06
73974;BME280;62336;-26.094;27.994;2022-12-18T07:20:38;84290.35;;;33.74;21.07
73974;BME280;62336;-26.094;27.994;2022-12-18T07:23:04;84291.98;;;33.72;20.96
73974;BME280;62336;-26.094;27.994;2022-12-18T07:25:30;84290.40;;;33.94;21.45
73974;BME280;62336;-26.094;27.994;2022-12-18T07:27:55;84293.30;;;34.69;20.54
73974;BME280;62336;-26.094;27.994;2022-12-18T07:30:21;84297.58;;;34.04;20.86
73974;BME280;62336;-26.094;27.994;2022-12-18T07:32:46;84297.23;;;34.42;21.13
73974;BME280;62336;-26.094;27.994;2022-12-18T07:35:12;84294.16;;;34.46;20.37
73974;BME280;62336;-26.094;27.994;2022-12-18T07:37:37;84291.05;;;34.60;20.60
73974;BME280;62336;-26.094;27.994;2022-12-18T07:40:04;84285.56;;;35.47;20.02
73974;BME280;62336;-26.094;27.994;2022-12-18T07:42:29;84285.05;;;35.38;21.08
73974;BME280;62336;-26.094;27.994;2022-12-18T07:44:55;84285.52;;;35.00;19.80
73974;BME280;62336;-26.094;27.994;2022-12-18T07:47:21;84282.85;;;34.73;20.00
73974;BME280;62336;-26.094;27.994;2022-12-18T07:49:46;84288.36;;;34.42;20.17
73974;BME280;62336;-26.094;27.994;2022-12-18T07:52:12;84285.81;;;34.55;20.35
73974;BME280;62336;-26.094;27.994;2022-12-18T07:54:39;84289.93;;;34.91;19.20
73974;BME280;62336;-26.094;27.994;2022-12-18T07:57:04;84289.46;;;34.67;19.73
73974;BME280;62336;-26.094;27.994;2022-12-18T07:59:30;84286.89;;;34.72;19.42
73974;BME280;62336;-26.094;27.994;2022-12-18T08:01:56;84284.18;;;35.46;19.84
73974;BME280;62336;-26.094;27.994;2022-12-18T08:04:21;84280.60;;;35.54;18.96
73974;BME280;62336;-26.094;27.994;2022-12-18T08:06:47;84276.92;;;35.61;19.10
73974;BME280;62336;-26.094;27.994;2022-12-18T08:09:13;84270.82;;;35.84;19.07
73974;BME280;62336;-26.094;27.994;2022-12-18T08:12:14;84277.16;;;33.45;21.63
73974;BME280;62336;-26.094;27.994;2022-12-18T08:14:39;84277.66;;;33.70;20.40
73974;BME280;62336;-26.094;27.994;2022-12-18T08:17:04;84279.72;;;34.62;19.76
73974;BME280;62336;-26.094;27.994;2022-12-18T08:19:29;84281.53;;;34.63;20.00
73974;BME280;62336;-26.094;27.994;2022-12-18T08:21:55;84275.88;;;34.76;19.93
73974;BME280;62336;-26.094;27.994;2022-12-18T08:24:20;84274.28;;;34.61;19.41
73974;BME280;62336;-26.094;27.994;2022-12-18T08:26:45;84277.96;;;35.33;19.26
73974;BME280;62336;-26.094;27.994;2022-12-18T08:29:11;84273.80;;;35.64;18.63
73974;BME280;62336;-26.094;27.994;2022-12-18T08:31:37;84279.76;;;35.37;19.03
73974;BME280;62336;-26.094;27.994;2022-12-18T08:34:02;84280.48;;;35.25;19.66
73974;BME280;62336;-26.094;27.994;2022-12-18T08:36:28;84285.99;;;35.24;19.20
73974;BME280;62336;-26.094;27.994;2022-12-18T08:38:54;84283.45;;;35.68;19.07
73974;BME280;62336;-26.094;27.994;2022-12-18T08:41:20;84284.24;;;36.08;18.54
73974;BME280;62336;-26.094;27.994;2022-12-18T08:43:45;84273.53;;;35.86;19.17
73974;BME280;62336;-26.094;27.994;2022-12-18T08:46:10;84276.74;;;35.80;20.12
73974;BME280;62336;-26.094;27.994;2022-12-18T08:48:36;84278.15;;;36.05;19.20
73974;BME280;62336;-26.094;27.994;2022-12-18T08:51:02;84276.35;;;35.80;18.63
73974;BME280;62336;-26.094;27.994;2022-12-18T08:53:28;84281.03;;;35.57;18.83
73974;BME280;62336;-26.094;27.994;2022-12-18T08:55:54;84280.28;;;36.04;19.03
73974;BME280;62336;-26.094;27.994;2022-12-18T08:58:20;84274.61;;;36.03;19.23
73974;BME280;62336;-26.094;27.994;2022-12-18T09:00:45;84277.11;;;36.08;19.42
73974;BME280;62336;-26.094;27.994;2022-12-18T09:03:12;84279.25;;;36.27;18.72
73974;BME280;62336;-26.094;27.994;2022-12-18T09:05:36;84280.01;;;36.75;18.09
73974;BME280;62336;-26.094;27.994;2022-12-18T09:08:02;84283.55;;;36.06;18.97
73974;BME280;62336;-26.094;27.994;2022-12-18T09:10:28;84276.06;;;35.77;18.75
73974;BME280;62336;-26.094;27.994;2022-12-18T09:12:54;84278.10;;;37.08;18.32
73974;BME280;62336;-26.094;27.994;2022-12-18T09:15:19;84271.45;;;36.99;18.32
73974;BME280;62336;-26.094;27.994;2022-12-18T09:17:45;84276.75;;;37.31;17.76
73974;BME280;62336;-26.094;27.994;2022-12-18T09:20:12;84271.17;;;36.79;16.96
73974;BME280;62336;-26.094;27.994;2022-12-18T09:22:37;84272.71;;;36.91;18.14
73974;BME280;62336;-26.094;27.994;2022-12-18T09:25:07;84275.20;;;36.08;18.38
73974;BME280;62336;-26.094;27.994;2022-12-18T09:27:29;84273.50;;;35.98;18.18
73974;BME280;62336;-26.094;27.994;2022-12-18T09:29:54;84272.07;;;36.30;18.51
73974;BME280;62336;-26.094;27.994;2022-12-18T09:32:20;84265.86;;;36.36;18.69
73974;BME280;62336;-26.094;27.994;2022-12-18T09:34:45;84264.27;;;36.16;18.67
73974;BME280;62336;-26.094;27.994;2022-12-18T09:37:11;84261.95;;;36.48;17.99
73974;BME280;62336;-26.094;27.994;2022-12-18T09:39:36;84254.98;;;37.31;18.56
73974;BME280;62336;-26.094;27.994;2022-12-18T09:42:03;84255.14;;;36.60;18.87
73974;BME280;62336;-26.094;27.994;2022-12-18T09:44:31;84258.15;;;36.76;19.44
73974;BME280;62336;-26.094;27.994;2022-12-18T09:47:03;84262.20;;;37.17;18.83
73974;BME280;62336;-26.094;27.994;2022-12-18T09:49:23;84255.02;;;36.85;17.99
73974;BME280;62336;-26.094;27.994;2022-12-18T09:51:49;84257.39;;;36.56;18.21
73974;BME280;62336;-26.094;27.994;2022-12-18T09:54:16;84252.47;;;36.95;18.37
73974;BME280;62336;-26.094;27.994;2022-12-18T09:56:41;84244.61;;;37.11;17.89
73974;BME280;62336;-26.094;27.994;2022-12-18T09:59:04;84243.68;;;36.67;18.42
73974;BME280;62336;-26.094;27.994;2022-12-18T10:01:31;84240.01;;;36.59;18.69
73974;BME280;62336;-26.094;27.994;2022-12-18T10:03:56;84241.93;;;36.62;18.34
73974;BME280;62336;-26.094;27.994;2022-12-18T10:06:26;84240.69;;;37.03;18.20
73974;BME280;62336;-26.094;27.994;2022-12-18T10:08:53;84239.94;;;36.98;19.00
73974;BME280;62336;-26.094;27.994;2022-12-18T10:10:39;84235.84;;;36.70;18.41
73974;BME280;62336;-26.094;27.994;2022-12-18T10:13:06;84232.72;;;37.53;17.94
73974;BME280;62336;-26.094;27.994;2022-12-18T10:15:27;84231.32;;;37.57;18.61
73974;BME280;62336;-26.094;27.994;2022-12-18T10:17:54;84233.88;;;38.03;17.82
73974;BME280;62336;-26.094;27.994;2022-12-18T10:20:18;84232.30;;;37.56;17.48
73974;BME280;62336;-26.094;27.994;2022-12-18T10:22:49;84224.10;;;37.24;17.92
73974;BME280;62336;-26.094;27.994;2022-12-18T10:27:31;84220.58;;;37.98;16.70
73974;BME280;62336;-26.094;27.994;2022-12-18T10:29:57;84216.86;;;37.23;16.84
73974;BME280;62336;-26.094;27.994;2022-12-18T10:32:24;84210.16;;;37.85;17.45
73974;BME280;62336;-26.094;27.994;2022-12-18T10:34:49;84210.22;;;37.34;17.60
73974;BME280;62336;-26.094;27.994;2022-12-18T10:37:17;84213.26;;;37.99;17.35
73974;BME280;62336;-26.094;27.994;2022-12-18T10:39:41;84208.71;;;37.84;16.48
73974;BME280;62336;-26.094;27.994;2022-12-18T10:42:11;84210.50;;;38.14;16.25
73974;BME280;62336;-26.094;27.994;2022-12-18T10:44:32;84206.90;;;37.81;16.42
73974;BME280;62336;-26.094;27.994;2022-12-18T10:47:03;84207.62;;;37.76;17.36
73974;BME280;62336;-26.094;27.994;2022-12-18T10:49:25;84207.75;;;37.51;16.75
73974;BME280;62336;-26.094;27.994;2022-12-18T10:51:48;84206.05;;;37.30;16.82
73974;BME280;62336;-26.094;27.994;2022-12-18T10:54:17;84208.11;;;37.25;17.06
73974;BME280;62336;-26.094;27.994;2022-12-18T10:56:38;84202.59;;;37.48;17.06
73974;BME280;62336;-26.094;27.994;2022-12-18T10:59:05;84199.39;;;38.02;16.67
73974;BME280;62336;-26.094;27.994;2022-12-18T11:01:28;84197.48;;;38.34;15.98
73974;BME280;62336;-26.094;27.994;2022-12-18T11:04:00;84192.39;;;38.01;15.94
73974;BME280;62336;-26.094;27.994;2022-12-18T11:06:22;84189.02;;;37.64;16.62
73974;BME280;62336;-26.094;27.994;2022-12-18T11:11:16;84181.76;;;37.54;16.07
73974;BME280;62336;-26.094;27.994;2022-12-18T11:13:36;84184.10;;;37.61;16.10
73974;BME280;62336;-26.094;27.994;2022-12-18T11:16:00;84183.73;;;36.91;16.96
73974;BME280;62336;-26.094;27.994;2022-12-18T11:18:31;84187.05;;;37.33;17.03
73974;BME280;62336;-26.094;27.994;2022-12-18T11:20:54;84182.83;;;37.67;15.84
73974;BME280;62336;-26.094;27.994;2022-12-18T11:23:21;84171.40;;;37.40;16.06
73974;BME280;62336;-26.094;27.994;2022-12-18T11:25:53;84171.87;;;37.96;15.79
73974;BME280;62336;-26.094;27.994;2022-12-18T11:30:36;84169.87;;;38.36;16.10
73974;BME280;62336;-26.094;27.994;2022-12-18T11:33:04;84168.83;;;38.52;15.91
73974;BME280;62336;-26.094;27.994;2022-12-18T11:37:55;84159.84;;;38.19;16.78
73974;BME280;62336;-26.094;27.994;2022-12-18T11:40:20;84159.83;;;38.25;15.75
73974;BME280;62336;-26.094;27.994;2022-12-18T11:42:48;84157.18;;;37.86;16.19
73974;BME280;62336;-26.094;27.994;2022-12-18T11:47:40;84155.53;;;37.87;15.39
73974;BME280;62336;-26.094;27.994;2022-12-18T11:50:02;84155.14;;;37.79;15.58
73974;BME280;62336;-26.094;27.994;2022-12-18T11:52:30;84151.33;;;37.42;16.20
73974;BME280;62336;-26.094;27.994;2022-12-18T11:54:52;84147.06;;;38.01;15.91
73974;BME280;62336;-26.094;27.994;2022-12-18T11:57:26;84144.43;;;37.40;16.36
73974;BME280;62336;-26.094;27.994;2022-12-18T11:59:49;84141.99;;;37.21;15.99
73974;BME280;62336;-26.094;27.994;2022-12-18T12:02:17;84141.23;;;38.06;16.28
73974;BME280;62336;-26.094;27.994;2022-12-18T12:04:45;84140.12;;;37.85;16.12
73974;BME280;62336;-26.094;27.994;2022-12-18T12:07:09;84141.71;;;37.52;15.87
73974;BME280;62336;-26.094;27.994;2022-12-18T12:09:29;84136.12;;;37.68;15.42
73974;BME280;62336;-26.094;27.994;2022-12-18T12:11:58;84137.57;;;37.93;15.70
73974;BME280;62336;-26.094;27.994;2022-12-18T12:14:27;84135.41;;;37.85;16.14
73974;BME280;62336;-26.094;27.994;2022-12-18T12:16:48;84134.46;;;38.46;15.91
73974;BME280;62336;-26.094;27.994;2022-12-18T12:19:21;84131.75;;;37.93;16.23
73974;BME280;62336;-26.094;27.994;2022-12-18T12:21:37;84126.09;;;37.36;16.55
73974;BME280;62336;-26.094;27.994;2022-12-18T12:24:09;84125.49;;;37.64;16.52
73974;BME280;62336;-26.094;27.994;2022-12-18T12:26:30;84121.36;;;37.13;15.75
73974;BME280;62336;-26.094;27.994;2022-12-18T12:29:00;84118.75;;;37.63;16.20
73974;BME280;62336;-26.094;27.994;2022-12-18T12:31:23;84115.98;;;37.96;16.01
73974;BME280;62336;-26.094;27.994;2022-12-18T12:33:43;84116.12;;;37.65;16.33
73974;BME280;62336;-26.094;27.994;2022-12-18T12:36:12;84110.77;;;37.85;17.00
73974;BME280;62336;-26.094;27.994;2022-12-18T12:38:37;84106.55;;;37.57;16.50
73974;BME280;62336;-26.094;27.994;2022-12-18T12:41:00;84101.67;;;37.61;15.98
73974;BME280;62336;-26.094;27.994;2022-12-18T12:43:28;84098.66;;;37.98;16.34
73974;BME280;62336;-26.094;27.994;2022-12-18T12:45:50;84098.52;;;37.72;16.48
73974;BME280;62336;-26.094;27.994;2022-12-18T12:48:20;84098.12;;;38.24;15.93
73974;BME280;62336;-26.094;27.994;2022-12-18T12:50:39;84095.92;;;37.78;15.83
73974;BME280;62336;-26.094;27.994;2022-12-18T12:53:07;84096.08;;;37.92;15.41
73974;BME280;62336;-26.094;27.994;2022-12-18T12:55:30;84092.74;;;37.29;15.14
73974;BME280;62336;-26.094;27.994;2022-12-18T12:58:02;84092.34;;;37.94;15.65
73974;BME280;62336;-26.094;27.994;2022-12-18T13:00:20;84097.67;;;38.26;15.30
73974;BME280;62336;-26.094;27.994;2022-12-18T13:02:50;84096.67;;;37.78;15.58
73974;BME280;62336;-26.094;27.994;2022-12-18T13:05:18;84095.18;;;37.97;15.78
73974;BME280;62336;-26.094;27.994;2022-12-18T13:07:40;84098.12;;;37.78;15.81
73974;BME280;62336;-26.094;27.994;2022-12-18T13:10:13;84096.17;;;38.42;15.43
73974;BME280;62336;-26.094;27.994;2022-12-18T13:12:27;84096.71;;;38.09;15.52
73974;BME280;62336;-26.094;27.994;2022-12-18T13:14:52;84092.28;;;37.92;15.57
73974;BME280;62336;-26.094;27.994;2022-12-18T13:17:26;84090.68;;;37.34;15.63
73974;BME280;62336;-26.094;27.994;2022-12-18T13:19:42;84091.53;;;37.40;15.81
73974;BME280;62336;-26.094;27.994;2022-12-18T13:22:21;84093.90;;;36.97;16.39
73974;BME280;62336;-26.094;27.994;2022-12-18T13:24:32;84088.16;;;36.56;16.61
73974;BME280;62336;-26.094;27.994;2022-12-18T13:26:57;84087.19;;;37.22;16.07
73974;BME280;62336;-26.094;27.994;2022-12-18T13:29:41;84084.24;;;36.81;16.75
73974;BME280;62336;-26.094;27.994;2022-12-18T13:31:58;84080.03;;;36.67;16.69
73974;BME280;62336;-26.094;27.994;2022-12-18T13:34:18;84082.73;;;37.43;15.93
73974;BME280;62336;-26.094;27.994;2022-12-18T13:36:38;84085.52;;;37.12;16.21
73974;BME280;62336;-26.094;27.994;2022-12-18T13:39:22;84085.92;;;37.29;16.24
73974;BME280;62336;-26.094;27.994;2022-12-18T13:41:28;84086.05;;;37.19;16.37
73974;BME280;62336;-26.094;27.994;2022-12-18T13:43:55;84085.38;;;36.76;16.99
73974;BME280;62336;-26.094;27.994;2022-12-18T13:46:23;84083.68;;;36.64;17.07
73974;BME280;62336;-26.094;27.994;2022-12-18T13:48:53;84082.41;;;36.37;16.75
73974;BME280;62336;-26.094;27.994;2022-12-18T13:51:17;84074.69;;;36.23;16.58
73974;BME280;62336;-26.094;27.994;2022-12-18T13:53:42;84070.37;;;36.20;17.44
73974;BME280;62336;-26.094;27.994;2022-12-18T13:56:04;84067.98;;;36.10;17.54
73974;BME280;62336;-26.094;27.994;2022-12-18T13:58:29;84065.92;;;35.83;17.71
73974;BME280;62336;-26.094;27.994;2022-12-18T14:00:55;84064.77;;;35.96;17.77
73974;BME280;62336;-26.094;27.994;2022-12-18T14:03:23;84061.00;;;35.90;17.34
73974;BME280;62336;-26.094;27.994;2022-12-18T14:05:53;84060.70;;;36.07;17.40
73974;BME280;62336;-26.094;27.994;2022-12-18T14:08:14;84061.87;;;36.64;17.22
73974;BME280;62336;-26.094;27.994;2022-12-18T14:10:40;84059.87;;;36.79;17.17
73974;BME280;62336;-26.094;27.994;2022-12-18T14:13:06;84064.29;;;36.02;17.68
73974;BME280;62336;-26.094;27.994;2022-12-18T14:15:31;84061.57;;;36.02;17.49
73974;BME280;62336;-26.094;27.994;2022-12-18T14:17:52;84067.35;;;36.42;17.39
73974;BME280;62336;-26.094;27.994;2022-12-18T14:20:18;84067.68;;;36.28;17.42
73974;BME280;62336;-26.094;27.994;2022-12-18T14:22:43;84065.96;;;35.70;18.45
73974;BME280;62336;-26.094;27.994;2022-12-18T14:25:15;84074.83;;;35.17;19.16
73974;BME280;62336;-26.094;27.994;2022-12-18T14:27:36;84072.21;;;35.39;19.63
73974;BME280;62336;-26.094;27.994;2022-12-18T14:29:57;84073.31;;;34.99;19.73
73974;BME280;62336;-26.094;27.994;2022-12-18T14:32:22;84074.49;;;35.67;20.09
73974;BME280;62336;-26.094;27.994;2022-12-18T14:34:49;84074.93;;;35.35;20.15
73974;BME280;62336;-26.094;27.994;2022-12-18T14:37:13;84078.53;;;35.03;20.28
73974;BME280;62336;-26.094;27.994;2022-12-18T14:39:37;84081.18;;;34.80;20.62
73974;BME280;62336;-26.094;27.994;2022-12-18T14:42:02;84077.87;;;34.56;21.49
73974;BME280;62336;-26.094;27.994;2022-12-18T14:44:28;84076.82;;;34.57;21.44
73974;BME280;62336;-26.094;27.994;2022-12-18T14:46:53;84082.50;;;35.14;21.48
73974;BME280;62336;-26.094;27.994;2022-12-18T14:49:23;84083.62;;;35.10;21.20
73974;BME280;62336;-26.094;27.994;2022-12-18T14:51:48;84081.81;;;35.13;21.36
73974;BME280;62336;-26.094;27.994;2022-12-18T14:54:16;84081.65;;;35.05;21.09